Time;durP1;ratioP1;P1;durP2;ratioP2;P2;SDS_P1;SDS_P2;PMS_P1;PMS_P2;Temp;Humidity;BMP_temperature;BMP_pressure;BME280_temperature;BME280_humidity;BME280_pressure;Samples;Min_cycle;Max_cycle;Signal;HPM_P1;HPM_P2
2022/07/12 00:01:18;;;;;;;3.25;1.27;;;16.20;80.10;;;;;;6212213;23;20016;-68
2022/07/12 00:03:44;;;;;;;2.42;0.90;;;16.10;80.30;;;;;;6201001;23;20450;-68
2022/07/12 00:06:10;;;;;;;0.75;0.70;;;16.10;80.60;;;;;;6201686;23;20043;-65
2022/07/12 00:08:37;;;;;;;2.47;0.85;;;16.00;80.80;;;;;;6210983;23;20032;-67
2022/07/12 00:11:04;;;;;;;2.05;0.90;;;16.00;81.00;;;;;;6198974;23;20020;-67
2022/07/12 00:13:30;;;;;;;0.93;0.80;;;16.00;80.90;;;;;;6199630;23;20477;-68
2022/07/12 00:15:57;;;;;;;1.13;0.85;;;16.00;81.10;;;;;;6201329;23;20013;-67
2022/07/12 00:18:23;;;;;;;2.92;0.70;;;15.90;81.10;;;;;;6200045;23;20016;-68
2022/07/12 00:20:49;;;;;;;0.95;0.70;;;15.90;81.30;;;;;;6210949;23;20007;-67
2022/07/12 00:23:15;;;;;;;5.85;1.23;;;15.90;81.60;;;;;;6201429;23;20001;-67
2022/07/12 00:25:41;;;;;;;3.90;1.00;;;15.90;81.60;;;;;;6200492;23;20091;-67
2022/07/12 00:28:08;;;;;;;2.20;0.90;;;15.80;82.30;;;;;;6200815;23;20083;-67
2022/07/12 00:30:34;;;;;;;1.77;0.85;;;15.80;82.10;;;;;;6200940;23;20017;-65
2022/07/12 00:32:59;;;;;;;0.60;0.60;;;15.80;81.60;;;;;;6200410;23;20023;-67
2022/07/12 00:35:25;;;;;;;2.40;0.95;;;15.70;81.80;;;;;;6200966;23;20017;-67
2022/07/12 00:37:51;;;;;;;2.10;1.20;;;15.70;81.60;;;;;;6210137;23;20377;-67
2022/07/12 00:40:17;;;;;;;2.72;0.98;;;15.70;81.60;;;;;;6200070;23;20016;-67
2022/07/12 00:42:43;;;;;;;1.80;0.98;;;15.60;81.90;;;;;;6210120;23;20011;-65
2022/07/12 00:45:10;;;;;;;1.95;0.70;;;15.50;82.20;;;;;;6200828;23;20044;-67
2022/07/12 00:47:45;;;;;;;1.60;0.77;;;15.50;82.60;;;;;;6209609;23;20012;-67
2022/07/12 00:50:12;;;;;;;4.47;0.70;;;15.50;83.10;;;;;;6199941;23;20441;-67
2022/07/12 00:52:39;;;;;;;3.15;0.80;;;15.50;83.40;;;;;;6210100;23;20018;-67
2022/07/12 00:55:06;;;;;;;2.20;0.90;;;15.40;83.50;;;;;;6209772;23;20019;-66
2022/07/12 00:57:33;;;;;;;2.15;0.80;;;15.40;83.80;;;;;;6199631;23;20458;-66
2022/07/12 00:59:59;;;;;;;1.75;0.73;;;15.40;84.10;;;;;;6200790;23;20019;-66
2022/07/12 01:02:25;;;;;;;1.45;0.70;;;15.30;83.90;;;;;;6200382;23;20008;-67
2022/07/12 01:04:52;;;;;;;2.72;0.98;;;15.40;83.70;;;;;;6210474;23;20061;-66
2022/07/12 01:07:18;;;;;;;2.05;0.77;;;15.30;83.60;;;;;;6201030;23;20117;-66
2022/07/12 01:09:45;;;;;;;2.20;0.90;;;15.30;83.80;;;;;;6211555;23;20438;-66
2022/07/12 01:12:11;;;;;;;1.65;0.93;;;15.30;83.70;;;;;;6211090;23;20051;-66
2022/07/12 01:14:39;;;;;;;1.02;0.80;;;15.30;83.80;;;;;;6211859;23;20020;-66
2022/07/12 01:17:06;;;;;;;2.25;0.90;;;15.30;83.90;;;;;;6201337;23;20021;-66
2022/07/12 01:19:34;;;;;;;1.55;0.90;;;15.30;83.80;;;;;;6200728;23;20005;-66
2022/07/12 01:22:01;;;;;;;1.65;1.23;;;15.30;83.20;;;;;;6211538;23;20431;-65
2022/07/12 01:24:27;;;;;;;2.38;1.05;;;15.30;82.50;;;;;;6202229;23;20015;-65
2022/07/12 01:26:53;;;;;;;3.55;0.80;;;15.30;82.40;;;;;;6210742;23;20525;-67
2022/07/12 01:29:20;;;;;;;1.80;1.70;;;15.20;82.70;;;;;;6200525;23;20040;-66
2022/07/12 01:31:46;;;;;;;2.15;1.10;;;15.10;83.00;;;;;;6204210;23;20330;-68
2022/07/12 01:34:13;;;;;;;2.10;0.98;;;15.00;83.40;;;;;;6212153;23;20755;-66
2022/07/12 01:36:40;;;;;;;2.35;0.88;;;15.00;83.50;;;;;;6213428;23;20040;-67
2022/07/12 01:39:05;;;;;;;2.42;0.90;;;14.90;84.00;;;;;;6210628;23;20012;-69
2022/07/12 01:41:32;;;;;;;2.58;1.08;;;14.90;84.20;;;;;;6210159;23;20005;-66
2022/07/12 01:43:59;;;;;;;2.67;1.02;;;14.80;84.60;;;;;;6198081;23;20013;-66
2022/07/12 01:46:24;;;;;;;2.22;1.00;;;14.80;84.80;;;;;;6210422;23;20001;-64
2022/07/12 01:48:50;;;;;;;3.15;1.10;;;14.80;85.00;;;;;;6208802;23;20461;-66
2022/07/12 01:51:16;;;;;;;2.00;1.10;;;14.80;85.40;;;;;;6199925;23;20016;-66
2022/07/12 01:53:42;;;;;;;1.52;1.10;;;14.70;85.70;;;;;;6209783;23;20096;-64
2022/07/12 01:56:09;;;;;;;0.93;0.75;;;14.70;85.90;;;;;;6209312;23;20100;-67
2022/07/12 01:58:35;;;;;;;1.25;0.95;;;14.70;86.20;;;;;;6208826;23;20115;-65
2022/07/12 02:01:00;;;;;;;3.15;1.60;;;14.60;86.40;;;;;;6209594;23;20012;-65
2022/07/12 02:03:26;;;;;;;2.33;0.77;;;14.60;86.80;;;;;;6233136;23;20024;-65
2022/07/12 02:05:52;;;;;;;1.00;0.80;;;14.60;86.90;;;;;;6199989;23;20004;-65
2022/07/12 02:08:18;;;;;;;1.85;0.93;;;14.60;87.00;;;;;;6209710;23;20035;-65
2022/07/12 02:10:44;;;;;;;1.45;0.80;;;14.60;87.20;;;;;;6201986;23;20032;-66
2022/07/12 02:13:10;;;;;;;2.28;0.98;;;14.60;87.50;;;;;;6213553;23;20011;-65
2022/07/12 02:15:36;;;;;;;4.00;0.90;;;14.60;87.70;;;;;;6204236;23;20070;-64
2022/07/12 02:18:02;;;;;;;1.60;0.90;;;14.60;87.70;;;;;;6213553;23;20005;-64
2022/07/12 02:20:28;;;;;;;2.20;0.88;;;14.60;87.90;;;;;;6204724;23;20062;-64
2022/07/12 02:22:54;;;;;;;1.27;0.75;;;14.60;88.10;;;;;;6204071;23;20484;-64
2022/07/12 02:25:19;;;;;;;5.30;1.60;;;14.60;88.20;;;;;;6204424;23;20028;-64
2022/07/12 02:27:45;;;;;;;3.78;0.93;;;14.60;88.10;;;;;;6204433;23;20012;-64
2022/07/12 02:30:11;;;;;;;2.08;1.00;;;14.50;88.20;;;;;;6214343;23;20078;-64
2022/07/12 02:32:37;;;;;;;1.33;1.00;;;14.50;88.10;;;;;;6214371;23;20008;-64
2022/07/12 02:35:05;;;;;;;1.67;0.80;;;14.50;88.40;;;;;;6214580;23;20470;-64
2022/07/12 02:37:30;;;;;;;1.50;0.90;;;14.50;88.60;;;;;;6203487;23;20019;-64
2022/07/12 02:40:53;;;;;;;1.25;0.90;;;14.50;88.60;;;;;;6203158;23;20342;-65
2022/07/12 02:42:43;;;;;;;2.03;1.03;;;14.50;88.60;;;;;;6203296;23;20066;-64
2022/07/12 02:45:10;;;;;;;1.15;0.80;;;14.50;88.80;;;;;;6202746;23;20005;-64
2022/07/12 02:47:40;;;;;;;2.40;1.00;;;14.50;88.70;;;;;;6202271;23;20016;-64
2022/07/12 02:50:06;;;;;;;1.58;1.00;;;14.50;88.60;;;;;;6202813;23;20027;-64
2022/07/12 02:52:33;;;;;;;1.42;0.93;;;14.50;88.30;;;;;;6202755;23;20069;-64
2022/07/12 02:54:59;;;;;;;1.35;0.75;;;14.40;88.00;;;;;;6213064;23;20000;-64
2022/07/12 02:57:25;;;;;;;3.30;1.00;;;14.40;87.60;;;;;;6202210;23;20338;-64
2022/07/12 02:59:51;;;;;;;3.38;1.00;;;14.30;86.90;;;;;;6203438;23;20080;-64
2022/07/12 03:02:16;;;;;;;6.53;1.63;;;14.30;86.90;;;;;;6202892;23;20000;-64
2022/07/12 03:04:42;;;;;;;1.65;1.08;;;14.30;87.10;;;;;;6203409;23;20000;-64
2022/07/12 03:07:08;;;;;;;2.58;1.30;;;14.20;87.20;;;;;;6202625;23;20036;-64
2022/07/12 03:09:35;;;;;;;3.38;1.05;;;14.20;86.80;;;;;;6202615;23;20024;-64
2022/07/12 03:12:01;;;;;;;1.08;0.95;;;14.10;87.10;;;;;;6201937;23;20466;-64
2022/07/12 03:14:26;;;;;;;6.25;1.20;;;14.00;87.60;;;;;;6203661;23;20015;-64
2022/07/12 03:16:52;;;;;;;3.05;1.25;;;14.00;88.20;;;;;;6203068;23;20647;-64
2022/07/12 03:19:18;;;;;;;2.40;0.90;;;14.00;88.60;;;;;;6203122;23;20005;-64
2022/07/12 03:21:44;;;;;;;2.90;0.98;;;14.00;88.90;;;;;;6203639;23;20017;-64
2022/07/12 03:24:10;;;;;;;1.70;0.90;;;14.00;89.30;;;;;;6202975;23;20076;-64
2022/07/12 03:26:36;;;;;;;2.33;1.13;;;14.00;89.70;;;;;;6212019;23;20712;-64
2022/07/12 03:29:02;;;;;;;1.75;1.08;;;14.00;89.80;;;;;;6203930;23;20514;-64
2022/07/12 03:31:28;;;;;;;1.95;1.10;;;14.00;89.70;;;;;;6200699;23;20011;-64
2022/07/12 03:33:54;;;;;;;3.83;1.10;;;14.00;89.50;;;;;;6204239;23;20016;-64
2022/07/12 03:36:20;;;;;;;1.55;1.05;;;14.00;89.20;;;;;;6203798;23;20016;-64
2022/07/12 03:38:46;;;;;;;1.20;0.93;;;14.00;89.20;;;;;;6203399;23;20005;-64
2022/07/12 03:41:12;;;;;;;1.80;1.13;;;14.00;89.10;;;;;;6203958;23;20070;-64
2022/07/12 03:43:38;;;;;;;3.40;1.15;;;14.00;89.10;;;;;;6205837;23;20087;-64
2022/07/12 03:46:04;;;;;;;1.88;0.90;;;14.00;89.30;;;;;;6206056;23;20009;-64
2022/07/12 03:48:29;;;;;;;1.95;1.20;;;14.00;89.40;;;;;;6206057;23;20013;-64
2022/07/12 03:50:55;;;;;;;2.05;1.20;;;14.00;89.50;;;;;;6205955;23;20027;-64
2022/07/12 03:53:21;;;;;;;3.70;1.30;;;14.00;89.50;;;;;;6202734;23;20370;-64
2022/07/12 03:55:47;;;;;;;2.47;1.20;;;14.00;89.40;;;;;;6214151;23;20009;-64
2022/07/12 03:58:13;;;;;;;2.55;1.00;;;14.00;89.20;;;;;;6212799;23;20547;-64
2022/07/12 04:00:42;;;;;;;2.17;1.38;;;14.00;89.10;;;;;;6213335;23;20011;-64
2022/07/12 04:03:11;;;;;;;1.45;0.90;;;14.00;89.10;;;;;;6205339;23;20100;-64
2022/07/12 04:05:37;;;;;;;0.90;0.90;;;14.00;89.30;;;;;;6205168;23;20339;-64
2022/07/12 04:08:03;;;;;;;2.97;1.13;;;14.00;89.40;;;;;;6214283;23;20009;-64
2022/07/12 04:10:29;;;;;;;1.33;1.10;;;14.00;89.40;;;;;;6202917;23;20023;-64
2022/07/12 04:12:55;;;;;;;3.25;1.25;;;14.00;89.00;;;;;;6214962;23;20417;-64
2022/07/12 04:15:21;;;;;;;1.15;1.05;;;14.00;88.90;;;;;;6213601;23;20074;-64
2022/07/12 04:17:47;;;;;;;1.42;1.15;;;14.00;89.10;;;;;;6204666;23;20092;-64
2022/07/12 04:20:13;;;;;;;2.20;1.27;;;14.00;89.40;;;;;;6204758;23;20009;-65
2022/07/12 04:22:39;;;;;;;2.42;1.17;;;14.00;89.30;;;;;;6214911;23;20383;-64
2022/07/12 04:25:06;;;;;;;1.67;1.08;;;14.00;89.40;;;;;;6204768;23;20083;-64
2022/07/12 04:27:32;;;;;;;2.38;1.38;;;14.00;89.50;;;;;;6204308;23;20083;-64
2022/07/12 04:29:58;;;;;;;1.25;0.93;;;14.10;89.60;;;;;;6204812;23;20684;-65
2022/07/12 04:32:23;;;;;;;1.05;0.98;;;14.10;89.60;;;;;;6204020;23;20055;-64
2022/07/12 04:34:49;;;;;;;1.83;1.27;;;14.10;89.60;;;;;;6205265;23;20051;-64
2022/07/12 04:37:15;;;;;;;1.75;1.13;;;14.10;89.70;;;;;;6214182;23;20020;-64
2022/07/12 04:39:40;;;;;;;6.88;1.27;;;14.20;89.60;;;;;;6215319;23;20000;-65
2022/07/12 04:42:06;;;;;;;2.83;1.40;;;14.20;89.60;;;;;;6215139;23;20000;-64
2022/07/12 04:44:32;;;;;;;3.72;1.45;;;14.20;89.60;;;;;;6214801;23;20008;-64
2022/07/12 04:46:58;;;;;;;4.30;1.88;;;14.20;89.70;;;;;;6204495;23;20468;-64
2022/07/12 04:49:23;;;;;;;4.53;1.38;;;14.20;89.80;;;;;;6214614;23;20028;-64
2022/07/12 04:51:49;;;;;;;2.55;1.50;;;14.30;89.80;;;;;;6214656;23;20009;-64
2022/07/12 04:54:15;;;;;;;2.25;1.30;;;14.30;90.00;;;;;;6203779;23;20748;-64
2022/07/12 04:56:41;;;;;;;3.10;1.27;;;14.30;90.00;;;;;;6205053;23;20013;-64
2022/07/12 04:59:06;;;;;;;1.55;1.08;;;14.40;90.20;;;;;;6204708;23;20017;-64
2022/07/12 05:01:32;;;;;;;2.08;1.20;;;14.40;90.20;;;;;;6203806;23;20008;-64
2022/07/12 05:03:58;;;;;;;3.72;1.40;;;14.50;90.20;;;;;;6204335;23;20008;-64
2022/07/12 05:06:25;;;;;;;3.22;1.27;;;14.60;90.20;;;;;;6205049;23;20005;-66
2022/07/12 05:08:51;;;;;;;1.60;1.20;;;14.70;90.10;;;;;;6203433;23;20637;-64
2022/07/12 05:11:17;;;;;;;3.65;1.60;;;14.70;90.10;;;;;;6204607;23;20682;-64
2022/07/12 05:13:43;;;;;;;1.85;1.38;;;14.80;90.10;;;;;;6204304;23;20147;-64
2022/07/12 05:16:09;;;;;;;5.50;0.95;;;14.80;90.10;;;;;;6213830;23;20008;-64
2022/07/12 05:18:35;;;;;;;3.42;1.38;;;14.90;90.00;;;;;;6203617;23;20012;-65
2022/07/12 05:21:01;;;;;;;1.60;1.20;;;15.00;90.00;;;;;;6204400;23;20108;-65
2022/07/12 05:23:27;;;;;;;1.63;1.25;;;15.00;90.00;;;;;;6203918;23;20338;-65
2022/07/12 05:25:52;;;;;;;1.40;1.20;;;15.10;90.10;;;;;;6202583;23;20012;-65
2022/07/12 05:28:18;;;;;;;1.42;1.10;;;15.20;90.10;;;;;;6203645;23;20024;-65
2022/07/12 05:30:44;;;;;;;2.00;1.15;;;15.40;90.00;;;;;;6203491;23;20016;-65
2022/07/12 05:33:12;;;;;;;1.35;1.05;;;15.50;89.50;;;;;;6213877;23;20005;-65
2022/07/12 05:35:38;;;;;;;3.22;1.20;;;15.60;89.00;;;;;;6213770;23;20005;-65
2022/07/12 05:38:03;;;;;;;2.88;1.45;;;15.70;88.70;;;;;;6201504;23;20558;-65
2022/07/12 05:40:29;;;;;;;2.45;1.00;;;15.80;88.50;;;;;;6204175;23;20004;-65
2022/07/12 05:42:55;;;;;;;2.63;1.17;;;15.90;88.40;;;;;;6204400;23;20615;-64
2022/07/12 05:45:22;;;;;;;2.95;1.02;;;16.00;88.20;;;;;;6213533;23;20084;-65
2022/07/12 05:47:48;;;;;;;3.22;1.30;;;16.10;88.20;;;;;;6204507;23;20016;-65
2022/07/12 05:50:14;;;;;;;4.03;1.10;;;16.10;87.90;;;;;;6204373;23;20016;-65
2022/07/12 05:55:24;;;;;;;2.50;0.95;;;16.30;87.40;;;;;;6205090;23;20021;-65
2022/07/12 05:57:50;;;;;;;1.23;0.98;;;16.40;87.00;;;;;;6205462;23;20594;-65
2022/07/12 06:00:16;;;;;;;1.67;0.82;;;16.50;86.30;;;;;;6215573;23;20004;-65
2022/07/12 06:02:41;;;;;;;1.75;1.15;;;16.70;85.30;;;;;;6206280;23;20012;-65
2022/07/12 06:05:07;;;;;;;1.50;0.93;;;16.80;84.70;;;;;;6206046;23;20020;-65
2022/07/12 06:07:33;;;;;;;1.65;1.10;;;16.90;84.30;;;;;;6204032;23;20508;-64
2022/07/12 06:09:59;;;;;;;2.05;0.98;;;17.00;84.10;;;;;;6213343;23;20076;-65
2022/07/12 06:12:25;;;;;;;1.88;0.95;;;17.20;82.70;;;;;;6214200;23;20024;-65
2022/07/12 06:14:51;;;;;;;3.80;0.93;;;17.30;81.70;;;;;;6213571;23;20055;-65
2022/07/12 06:17:21;;;;;;;1.63;1.08;;;17.40;81.50;;;;;;6213400;23;20009;-66
2022/07/12 06:19:48;;;;;;;2.97;1.13;;;17.70;81.40;;;;;;6203543;23;20346;-65
2022/07/12 06:22:13;;;;;;;2.72;1.35;;;17.90;79.50;;;;;;6203115;23;20354;-67
2022/07/12 06:24:39;;;;;;;2.25;1.20;;;18.00;78.10;;;;;;6214098;23;20095;-64
2022/07/12 06:27:05;;;;;;;0.95;0.60;;;18.00;76.90;;;;;;6213233;23;20028;-64
2022/07/12 06:29:31;;;;;;;1.55;1.00;;;18.10;76.80;;;;;;6202795;23;20015;-63
2022/07/12 06:31:57;;;;;;;1.85;0.98;;;18.20;76.20;;;;;;6213523;23;20449;-63
2022/07/12 06:34:22;;;;;;;1.65;1.10;;;18.20;75.40;;;;;;6213160;23;20013;-63
2022/07/12 06:36:48;;;;;;;2.22;1.05;;;18.30;75.30;;;;;;6202540;23;20036;-63
2022/07/12 06:39:14;;;;;;;2.67;1.05;;;18.30;75.20;;;;;;6203846;23;20008;-63
2022/07/12 06:41:39;;;;;;;2.65;1.45;;;18.40;74.30;;;;;;6204362;23;20023;-63
2022/07/12 06:44:05;;;;;;;1.30;1.20;;;18.50;74.10;;;;;;6203994;23;20011;-63
2022/07/12 06:46:31;;;;;;;2.22;1.20;;;18.50;73.30;;;;;;6203532;23;20008;-64
2022/07/12 06:48:57;;;;;;;2.40;1.30;;;18.60;73.50;;;;;;6214226;23;20066;-64
2022/07/12 06:51:22;;;;;;;4.57;2.55;;;18.70;73.90;;;;;;6213793;23;20009;-64
2022/07/12 06:53:48;;;;;;;2.67;1.10;;;18.70;72.90;;;;;;6214273;23;20032;-64
2022/07/12 06:56:15;;;;;;;2.13;0.80;;;18.80;72.40;;;;;;6203472;23;20017;-64
2022/07/12 06:58:40;;;;;;;2.72;1.02;;;18.80;72.20;;;;;;6203092;23;20453;-64
2022/07/12 07:01:06;;;;;;;2.25;1.15;;;18.90;72.50;;;;;;6214326;23;20079;-65
2022/07/12 07:03:32;;;;;;;2.13;1.00;;;19.00;71.60;;;;;;6203807;23;20027;-64
2022/07/12 07:05:58;;;;;;;2.95;1.02;;;19.10;71.10;;;;;;6203457;23;20015;-64
2022/07/12 07:08:23;;;;;;;4.68;2.42;;;19.20;71.30;;;;;;6202857;23;20023;-65
2022/07/12 07:10:49;;;;;;;2.28;1.50;;;19.30;70.60;;;;;;6204797;23;20082;-74
2022/07/12 07:13:15;;;;;;;1.38;1.15;;;19.40;69.00;;;;;;6203377;23;20413;-66
2022/07/12 07:15:41;;;;;;;3.78;0.80;;;19.40;68.10;;;;;;6214187;23;20087;-68
2022/07/12 07:18:07;;;;;;;4.25;0.90;;;19.50;68.50;;;;;;6203786;23;20012;-65
2022/07/12 07:20:33;;;;;;;1.88;0.77;;;19.60;67.30;;;;;;6213779;23;20015;-65
2022/07/12 07:22:59;;;;;;;3.15;1.77;;;19.70;67.10;;;;;;6213933;23;20541;-65
2022/07/12 07:25:25;;;;;;;2.08;0.93;;;19.80;67.40;;;;;;6203802;23;20083;-65
2022/07/12 07:27:50;;;;;;;1.65;1.05;;;19.90;68.20;;;;;;6202102;23;20461;-66
2022/07/12 07:33:00;;;;;;;3.03;0.85;;;20.00;68.50;;;;;;6203124;23;20012;-65
2022/07/12 07:35:26;;;;;;;4.47;0.85;;;20.10;67.20;;;;;;6212123;23;20060;-66
2022/07/12 07:37:52;;;;;;;2.10;0.60;;;20.20;67.40;;;;;;6214113;23;20465;-65
2022/07/12 07:40:18;;;;;;;1.30;0.68;;;20.30;65.10;;;;;;6214446;23;20430;-66
2022/07/12 07:42:44;;;;;;;11.80;7.20;;;20.40;63.60;;;;;;6204499;23;20028;-67
2022/07/12 07:45:11;;;;;;;2.65;1.60;;;20.50;62.70;;;;;;6205043;23;20012;-63
2022/07/12 07:47:48;;;;;;;2.70;0.60;;;20.60;62.20;;;;;;6204272;23;20064;-69
2022/07/12 07:50:15;;;;;;;0.68;0.47;;;20.70;62.00;;;;;;6204376;23;20020;-69
2022/07/12 07:52:40;;;;;;;0.38;0.38;;;20.70;59.50;;;;;;6204904;23;20339;-68
2022/07/12 07:55:07;;;;;;;1.35;0.60;;;20.80;59.50;;;;;;6204515;23;20013;-69
2022/07/12 07:57:32;;;;;;;3.70;0.68;;;20.90;58.20;;;;;;6202970;23;20008;-69
2022/07/12 07:59:58;;;;;;;0.80;0.80;;;21.00;59.30;;;;;;6215177;23;20028;-68
2022/07/12 08:02:24;;;;;;;2.58;0.60;;;21.00;59.10;;;;;;6203396;23;20020;-68
2022/07/12 08:04:50;;;;;;;1.25;0.68;;;21.10;58.90;;;;;;6204756;23;20169;-68
2022/07/12 08:07:16;;;;;;;2.08;1.40;;;21.20;59.10;;;;;;6203671;23;20008;-68
2022/07/12 08:09:42;;;;;;;4.88;2.42;;;21.20;58.10;;;;;;6204691;23;20004;-68
2022/07/12 08:12:08;;;;;;;6.35;3.03;;;21.30;58.80;;;;;;6217728;23;20005;-68
2022/07/12 08:14:34;;;;;;;2.00;1.10;;;21.40;58.90;;;;;;6207853;23;20035;-67
2022/07/12 08:16:59;;;;;;;4.32;1.50;;;21.40;58.40;;;;;;6207986;23;20709;-67
2022/07/12 08:19:25;;;;;;;6.18;1.35;;;21.50;58.80;;;;;;6215945;23;20090;-66
2022/07/12 08:21:51;;;;;;;2.97;1.00;;;21.60;56.90;;;;;;6205421;23;20001;-67
2022/07/12 08:24:16;;;;;;;3.00;0.65;;;21.70;56.50;;;;;;6205282;23;20695;-67
2022/07/12 08:26:42;;;;;;;4.15;1.50;;;21.80;57.00;;;;;;6213575;23;20092;-67
2022/07/12 08:29:08;;;;;;;0.98;0.60;;;21.80;56.80;;;;;;6204979;23;20012;-67
2022/07/12 08:31:34;;;;;;;1.08;0.82;;;21.90;56.80;;;;;;6214515;23;20084;-67
2022/07/12 08:34:00;;;;;;;1.58;0.63;;;22.00;55.80;;;;;;6214060;23;20008;-67
2022/07/12 08:36:26;;;;;;;0.65;0.30;;;22.10;55.50;;;;;;6214041;23;20019;-67
2022/07/12 08:38:52;;;;;;;1.85;0.40;;;22.20;55.10;;;;;;6203591;23;20059;-67
2022/07/12 08:41:18;;;;;;;4.80;0.65;;;22.30;54.80;;;;;;6204045;23;20000;-65
2022/07/12 08:43:43;;;;;;;1.95;0.55;;;22.40;54.30;;;;;;6214095;23;20016;-66
2022/07/12 08:46:11;;;;;;;7.43;0.90;;;22.40;53.60;;;;;;6204680;23;20008;-66
2022/07/12 08:48:38;;;;;;;1.85;0.40;;;22.50;54.00;;;;;;6203404;23;20090;-67
2022/07/12 08:51:13;;;;;;;0.85;0.73;;;22.50;53.00;;;;;;6203848;23;20026;-69
2022/07/12 08:53:39;;;;;;;1.23;0.50;;;22.50;54.10;;;;;;6204478;23;20009;-66
2022/07/12 08:56:06;;;;;;;3.20;1.38;;;22.50;51.80;;;;;;6213846;23;20008;-67
2022/07/12 08:58:33;;;;;;;0.20;0.20;;;22.60;54.00;;;;;;6203051;23;20015;-67
2022/07/12 09:01:00;;;;;;;2.05;0.70;;;22.70;52.60;;;;;;6214486;23;20390;-68
2022/07/12 09:03:26;;;;;;;2.20;1.20;;;22.80;53.50;;;;;;6204151;23;20019;-67
2022/07/12 09:05:55;;;;;;;2.22;0.82;;;22.90;54.50;;;;;;6203227;23;20011;-69
2022/07/12 09:08:27;;;;;;;1.73;0.47;;;23.00;53.60;;;;;;6204102;23;20012;-68
2022/07/12 09:10:55;;;;;;;5.22;2.45;;;23.10;52.90;;;;;;6213568;23;20008;-69
2022/07/12 09:13:52;;;;;;;4.35;2.10;;;23.20;52.80;;;;;;6203687;23;20017;-69
2022/07/12 09:16:20;;;;;;;1.25;0.77;;;23.30;52.30;;;;;;6213728;23;20839;-68
2022/07/12 09:18:47;;;;;;;3.50;1.27;;;23.30;52.10;;;;;;6212772;23;20090;-69
2022/07/12 09:21:27;;;;;;;3.45;1.73;;;23.30;50.90;;;;;;6203266;23;20443;-69
2022/07/12 09:23:58;;;;;;;1.13;0.90;;;23.40;53.00;;;;;;6214224;23;20462;-67
2022/07/12 09:26:33;;;;;;;0.93;0.35;;;23.40;52.00;;;;;;6213031;23;20013;-68
2022/07/12 09:29:13;;;;;;;1.95;1.63;;;23.50;52.50;;;;;;6204178;23;20385;-68
2022/07/12 09:37:19;;;;;;;2.67;1.42;;;23.70;52.30;;;;;;6203029;23;20016;-68
2022/07/12 09:39:45;;;;;;;2.60;1.88;;;23.80;51.70;;;;;;6214156;23;20319;-68
2022/07/12 09:42:12;;;;;;;5.45;3.25;;;23.80;51.80;;;;;;6203158;23;20005;-68
2022/07/12 09:44:42;;;;;;;2.97;0.90;;;23.80;52.20;;;;;;6213654;23;20343;-68
2022/07/12 09:47:13;;;;;;;1.17;0.68;;;23.90;51.40;;;;;;6203594;23;20699;-67
2022/07/12 09:49:45;;;;;;;1.90;1.13;;;24.00;50.40;;;;;;6203821;23;20017;-66
2022/07/12 09:52:14;;;;;;;1.50;0.85;;;24.10;50.20;;;;;;6204322;23;20012;-68
2022/07/12 09:54:42;;;;;;;1.42;0.95;;;24.10;50.20;;;;;;6204498;23;20455;-67
2022/07/12 09:57:20;;;;;;;2.20;0.63;;;24.10;50.10;;;;;;6203015;23;20020;-67
2022/07/12 09:59:47;;;;;;;0.80;0.60;;;24.10;51.30;;;;;;6213086;23;20635;-67
2022/07/12 10:02:15;;;;;;;1.88;0.88;;;24.20;50.60;;;;;;6213730;23;20008;-73
2022/07/12 10:04:42;;;;;;;2.88;0.90;;;24.30;51.30;;;;;;6202886;23;20016;-67
2022/07/12 10:07:12;;;;;;;2.05;0.70;;;24.20;52.70;;;;;;6203360;23;20447;-67
2022/07/12 10:09:40;;;;;;;1.55;0.47;;;24.30;51.80;;;;;;6204994;23;20001;-67
2022/07/12 10:12:07;;;;;;;1.85;0.70;;;24.30;51.60;;;;;;6202943;23;20009;-68
2022/07/12 10:14:33;;;;;;;3.30;1.83;;;24.30;51.40;;;;;;6215438;23;20116;-67
2022/07/12 10:16:59;;;;;;;3.03;1.25;;;24.40;52.40;;;;;;6204961;23;20031;-76
2022/07/12 10:19:28;;;;;;;2.20;0.90;;;24.50;52.20;;;;;;6205147;23;20484;-68
2022/07/12 10:21:56;;;;;;;3.03;0.60;;;24.60;50.90;;;;;;6205229;23;20083;-68
2022/07/12 10:24:31;;;;;;;2.13;1.05;;;24.70;50.80;;;;;;6217021;23;20005;-68
2022/07/12 10:27:20;;;;;;;2.37;1.10;;;24.80;51.50;;;;;;6215968;23;20027;-70
2022/07/12 10:29:48;;;;;;;1.13;0.68;;;24.80;51.10;;;;;;6216731;23;20028;-68
2022/07/12 10:32:27;;;;;;;4.95;1.70;;;24.80;50.70;;;;;;6213885;23;20533;-68
2022/07/12 10:35:00;;;;;;;18.92;9.65;;;24.80;52.40;;;;;;6203707;23;20386;-68
2022/07/12 10:37:27;;;;;;;9.98;4.55;;;24.90;51.40;;;;;;6202592;23;20012;-68
2022/07/12 10:40:15;;;;;;;4.70;3.17;;;24.90;50.90;;;;;;6212300;23;20059;-68
2022/07/12 10:43:04;;;;;;;9.40;4.05;;;25.00;50.90;;;;;;6203403;23;20111;-68
2022/07/12 10:45:40;;;;;;;6.28;3.95;;;25.20;50.40;;;;;;6202157;23;20066;-68
2022/07/12 10:48:18;;;;;;;6.85;3.05;;;25.30;51.10;;;;;;6201471;23;20019;-67
2022/07/12 10:50:44;;;;;;;2.13;1.05;;;25.20;51.20;;;;;;6202899;23;20020;-68
2022/07/12 10:53:20;;;;;;;2.47;0.88;;;25.30;50.30;;;;;;6214396;23;20005;-68
2022/07/12 10:56:05;;;;;;;6.00;1.38;;;25.30;49.30;;;;;;6213693;23;20008;-68
2022/07/12 10:58:37;;;;;;;2.53;1.75;;;25.30;49.30;;;;;;6213996;23;20014;-70
2022/07/12 11:01:05;;;;;;;2.65;1.65;;;25.40;49.20;;;;;;6204830;23;20009;-72
2022/07/12 11:03:42;;;;;;;5.63;3.47;;;25.40;48.80;;;;;;6213981;23;20390;-72
2022/07/12 11:06:10;;;;;;;5.47;3.63;;;25.50;50.00;;;;;;6204137;23;20019;-67
2022/07/12 11:08:51;;;;;;;5.07;2.85;;;25.50;50.00;;;;;;6214041;23;20005;-68
2022/07/12 11:11:18;;;;;;;3.28;1.27;;;25.50;50.00;;;;;;6214050;23;20457;-68
2022/07/12 11:13:44;;;;;;;4.55;1.27;;;25.60;51.40;;;;;;6204828;23;20098;-67
2022/07/12 11:16:10;;;;;;;3.80;2.05;;;25.70;50.70;;;;;;6214426;23;20091;-70
2022/07/12 11:18:37;;;;;;;1.42;1.00;;;25.80;50.30;;;;;;6202689;23;20019;-67
2022/07/12 11:21:04;;;;;;;6.22;0.68;;;25.90;49.80;;;;;;6204215;23;20128;-67
2022/07/12 11:23:31;;;;;;;2.97;1.15;;;25.90;48.50;;;;;;6204178;23;20008;-67
2022/07/12 11:26:01;;;;;;;2.53;2.08;;;26.00;48.40;;;;;;6212992;23;20431;-67
2022/07/12 11:28:29;;;;;;;1.65;0.90;;;26.10;47.80;;;;;;6202780;23;20075;-67
2022/07/12 11:31:05;;;;;;;1.38;0.75;;;26.20;48.40;;;;;;6202811;23;20017;-67
2022/07/12 11:33:34;;;;;;;2.05;0.63;;;26.40;47.00;;;;;;6213574;23;20012;-67
2022/07/12 11:36:03;;;;;;;1.48;1.00;;;26.30;47.00;;;;;;6214008;23;20032;-67
2022/07/12 11:38:29;;;;;;;0.85;0.60;;;26.20;47.40;;;;;;6203505;23;20086;-67
2022/07/12 11:40:59;;;;;;;0.40;0.40;;;26.20;47.10;;;;;;6203336;23;20008;-67
2022/07/12 11:43:26;;;;;;;1.17;0.52;;;26.20;47.10;;;;;;6203989;23;20012;-67
2022/07/12 11:45:55;;;;;;;0.88;0.40;;;26.20;46.90;;;;;;6203481;23;20071;-67
2022/07/12 11:48:23;;;;;;;1.23;0.60;;;26.30;46.50;;;;;;6202500;23;20016;-67
2022/07/12 11:50:51;;;;;;;1.00;0.70;;;26.30;46.40;;;;;;6203279;23;20017;-67
2022/07/12 11:53:23;;;;;;;2.10;0.50;;;26.40;46.90;;;;;;6203719;23;20044;-67
2022/07/12 11:55:52;;;;;;;1.05;0.55;;;26.40;46.80;;;;;;6202725;23;20009;-68
2022/07/12 11:58:20;;;;;;;1.00;0.38;;;26.40;46.50;;;;;;6203303;23;20016;-67
2022/07/12 12:00:47;;;;;;;0.40;0.40;;;26.50;46.70;;;;;;6201389;23;20457;-67
2022/07/12 12:03:16;;;;;;;2.35;0.73;;;26.40;45.80;;;;;;6212815;23;20047;-67
2022/07/12 12:05:43;;;;;;;1.70;0.50;;;26.40;45.70;;;;;;6203810;23;20012;-67
2022/07/12 12:08:10;;;;;;;1.75;0.40;;;26.40;46.50;;;;;;6203395;23;20055;-68
2022/07/12 12:10:35;;;;;;;2.20;0.57;;;26.40;46.90;;;;;;6203245;23;20087;-68
2022/07/12 12:13:02;;;;;;;2.30;0.50;;;26.50;45.50;;;;;;6203021;23;20039;-67
2022/07/12 12:15:32;;;;;;;3.45;1.52;;;26.60;46.60;;;;;;6213358;23;20188;-67
2022/07/12 12:18:04;;;;;;;0.98;0.80;;;26.70;46.00;;;;;;6212366;23;20009;-68
2022/07/12 12:20:31;;;;;;;1.55;0.50;;;26.80;45.80;;;;;;6203401;23;20009;-67
2022/07/12 12:23:17;;;;;;;1.00;0.50;;;26.90;45.60;;;;;;6204442;23;20074;-67
2022/07/12 12:25:44;;;;;;;3.03;0.60;;;26.90;45.20;;;;;;6204764;23;20012;-67
2022/07/12 12:28:10;;;;;;;1.00;0.60;;;26.90;45.30;;;;;;6204731;23;20019;-68
2022/07/12 12:30:49;;;;;;;0.60;0.40;;;26.90;45.80;;;;;;6214116;23;20088;-68
2022/07/12 12:33:37;;;;;;;0.73;0.60;;;26.80;45.90;;;;;;6206650;23;20442;-69
2022/07/12 12:36:24;;;;;;;0.73;0.50;;;26.80;46.50;;;;;;6207596;23;20099;-66
2022/07/12 12:38:58;;;;;;;1.95;0.60;;;26.90;46.70;;;;;;6207598;23;20016;-67
2022/07/12 12:41:26;;;;;;;0.93;0.60;;;27.00;47.20;;;;;;6206641;23;20137;-68
2022/07/12 12:44:03;;;;;;;2.92;0.70;;;27.00;46.80;;;;;;6215368;23;20016;-67
2022/07/12 12:46:47;;;;;;;2.50;0.70;;;27.00;46.30;;;;;;6204050;23;20024;-67
2022/07/12 12:49:13;;;;;;;1.67;0.52;;;27.10;46.10;;;;;;6204656;23;20016;-68
2022/07/12 12:51:52;;;;;;;1.30;0.57;;;27.10;45.60;;;;;;6215144;23;20367;-67
2022/07/12 12:54:36;;;;;;;2.20;0.55;;;27.10;44.50;;;;;;6204671;23;20013;-67
2022/07/12 12:57:02;;;;;;;17.40;9.13;;;27.10;45.30;;;;;;6214250;23;20012;-67
2022/07/12 12:59:27;;;;;;;1.70;1.40;;;27.00;45.10;;;;;;6204665;23;20020;-66